Time;durP1;ratioP1;P1;durP2;ratioP2;P2;SDS_P1;SDS_P2;PMS_P1;PMS_P2;Temp;Humidity;BMP_temperature;BMP_pressure;BME280_temperature;BME280_humidity;BME280_pressure;Samples;Min_cycle;Max_cycle;Signal;HPM_P1;HPM_P2
2020/12/20 00:01:39;;;;;;;24.03;12.20;;;3.40;99.90;;;;;;5051474;28;20235;-59
2020/12/20 00:04:04;;;;;;;19.13;11.60;;;3.30;99.90;;;;;;5074824;28;20193;-59
2020/12/20 00:06:36;;;;;;;20.33;11.70;;;3.40;99.90;;;;;;5044842;28;20459;-59
2020/12/20 00:09:14;;;;;;;19.10;10.87;;;3.30;99.90;;;;;;5049985;28;20224;-59
2020/12/20 00:11:41;;;;;;;23.40;10.37;;;3.30;99.90;;;;;;5049531;28;20463;-59
2020/12/20 00:17:10;;;;;;;19.67;11.67;;;3.30;99.90;;;;;;5054135;28;20485;-59
2020/12/20 00:19:38;;;;;;;20.90;11.30;;;3.20;99.90;;;;;;5035459;28;20434;-59
2020/12/20 00:22:06;;;;;;;19.83;11.70;;;3.20;99.90;;;;;;5052660;28;20471;-59
2020/12/20 00:24:31;;;;;;;23.37;12.20;;;3.20;99.90;;;;;;5048672;28;21011;-59
2020/12/20 00:26:58;;;;;;;20.40;11.33;;;3.20;99.90;;;;;;5033199;28;20531;-59
2020/12/20 00:29:26;;;;;;;17.80;10.70;;;3.20;99.90;;;;;;5053056;28;20647;-59
2020/12/20 00:31:51;;;;;;;19.00;11.83;;;3.20;99.90;;;;;;5031966;28;20429;-59
2020/12/20 00:34:17;;;;;;;17.50;11.43;;;3.30;99.90;;;;;;5051926;28;20489;-60
2020/12/20 00:36:45;;;;;;;16.83;10.33;;;3.20;99.90;;;;;;5053164;28;20178;-59
2020/12/20 00:39:11;;;;;;;15.33;9.23;;;3.20;99.90;;;;;;5032791;28;20437;-60
2020/12/20 00:41:37;;;;;;;15.30;9.60;;;3.20;99.90;;;;;;5052596;28;20440;-60
2020/12/20 00:44:03;;;;;;;15.00;9.47;;;3.20;99.90;;;;;;5033480;28;20578;-59
2020/12/20 00:46:29;;;;;;;17.90;11.17;;;3.20;99.90;;;;;;5032600;28;20910;-59
2020/12/20 00:48:55;;;;;;;23.20;12.30;;;3.20;99.90;;;;;;5031055;28;20446;-62
2020/12/20 00:51:20;;;;;;;16.30;10.50;;;3.20;99.90;;;;;;5053973;28;20432;-60
2020/12/20 00:53:46;;;;;;;18.73;11.87;;;3.20;99.90;;;;;;5043545;28;20220;-60
2020/12/20 00:56:14;;;;;;;16.70;10.10;;;3.20;99.90;;;;;;5060460;28;20199;-59
2020/12/20 00:58:40;;;;;;;18.67;10.73;;;3.30;99.90;;;;;;5070171;28;20181;-60
2020/12/20 01:01:08;;;;;;;17.47;9.80;;;3.30;99.90;;;;;;5065074;28;20409;-61
2020/12/20 01:03:34;;;;;;;17.03;10.30;;;3.30;99.90;;;;;;5046834;28;20893;-60
2020/12/20 01:06:00;;;;;;;14.60;9.00;;;3.30;99.90;;;;;;5050415;28;20442;-61
2020/12/20 01:08:27;;;;;;;13.70;8.47;;;3.30;99.90;;;;;;5071692;28;20472;-61
2020/12/20 01:10:53;;;;;;;13.30;7.60;;;3.30;99.90;;;;;;5055847;28;20175;-61
2020/12/20 01:13:18;;;;;;;12.93;7.43;;;3.30;99.90;;;;;;5047115;28;20460;-61
2020/12/20 01:15:44;;;;;;;12.30;7.10;;;3.30;99.90;;;;;;5025912;28;20852;-60
2020/12/20 01:18:09;;;;;;;11.63;6.70;;;3.30;99.90;;;;;;5053231;28;20654;-60
2020/12/20 01:20:35;;;;;;;14.90;7.90;;;3.30;99.90;;;;;;5050241;28;20659;-60
2020/12/20 01:23:01;;;;;;;13.17;7.13;;;3.20;99.90;;;;;;5048656;28;20218;-61
2020/12/20 01:25:27;;;;;;;15.33;7.37;;;3.20;99.90;;;;;;5030880;28;20443;-60
2020/12/20 01:27:52;;;;;;;11.17;7.37;;;3.20;99.90;;;;;;5034216;28;20228;-60
2020/12/20 01:30:18;;;;;;;20.07;9.27;;;3.20;99.90;;;;;;5050704;28;20171;-60
2020/12/20 01:32:44;;;;;;;15.67;9.03;;;3.20;99.90;;;;;;5052085;28;20197;-60
2020/12/20 01:35:10;;;;;;;15.60;9.13;;;3.20;99.90;;;;;;5050741;28;20204;-61
2020/12/20 01:37:35;;;;;;;15.00;9.27;;;3.20;99.90;;;;;;5052483;28;20186;-60
2020/12/20 01:40:02;;;;;;;13.93;9.10;;;3.20;99.90;;;;;;5036480;28;20430;-60
2020/12/20 01:42:27;;;;;;;16.70;9.77;;;3.20;99.90;;;;;;5021880;28;20222;-60
2020/12/20 01:44:53;;;;;;;15.77;9.50;;;3.30;99.90;;;;;;5047635;28;20444;-60
2020/12/20 01:47:19;;;;;;;19.33;10.40;;;3.30;99.90;;;;;;5032746;28;20572;-60
2020/12/20 01:49:45;;;;;;;17.57;10.17;;;3.20;99.90;;;;;;5052989;28;20167;-60
2020/12/20 01:52:12;;;;;;;15.43;9.80;;;3.20;99.90;;;;;;5032310;28;20487;-60
2020/12/20 01:54:38;;;;;;;18.30;10.40;;;3.20;99.90;;;;;;5050627;28;20436;-60
2020/12/20 01:57:04;;;;;;;18.53;12.13;;;3.30;99.90;;;;;;5033744;28;20426;-60
2020/12/20 01:59:31;;;;;;;18.43;11.37;;;3.30;99.90;;;;;;5032475;28;20517;-60
2020/12/20 02:01:59;;;;;;;15.50;10.43;;;3.20;99.90;;;;;;5028898;28;20503;-60
2020/12/20 02:04:25;;;;;;;18.60;11.07;;;3.30;99.90;;;;;;5033709;28;20468;-60
2020/12/20 02:06:51;;;;;;;16.27;9.80;;;3.30;99.90;;;;;;5052321;28;20448;-60
2020/12/20 02:09:18;;;;;;;16.37;9.63;;;3.20;99.90;;;;;;5056596;28;20471;-60
2020/12/20 02:11:44;;;;;;;15.00;10.37;;;3.20;99.90;;;;;;5072721;28;20175;-59
2020/12/20 02:14:09;;;;;;;24.67;9.80;;;3.30;99.90;;;;;;5061628;28;20444;-60
2020/12/20 02:16:35;;;;;;;14.37;9.30;;;3.30;99.90;;;;;;5056937;28;20497;-59
2020/12/20 02:19:01;;;;;;;16.43;9.33;;;3.20;99.90;;;;;;5058712;28;20170;-59
2020/12/20 02:21:26;;;;;;;11.77;8.00;;;3.30;99.90;;;;;;5052782;28;20175;-59
2020/12/20 02:23:52;;;;;;;12.93;7.77;;;3.20;99.90;;;;;;5018758;28;20290;-59
2020/12/20 02:26:20;;;;;;;12.87;8.50;;;3.20;99.90;;;;;;5048617;28;20202;-59
2020/12/20 02:28:50;;;;;;;14.30;8.20;;;3.20;99.90;;;;;;5050312;28;20168;-59
2020/12/20 02:31:16;;;;;;;11.53;7.63;;;3.20;99.90;;;;;;5050379;28;20423;-59
2020/12/20 02:33:42;;;;;;;12.63;7.70;;;3.20;99.90;;;;;;5029458;28;20461;-60
2020/12/20 02:36:08;;;;;;;16.40;8.67;;;3.30;99.90;;;;;;5046519;28;20428;-60
2020/12/20 02:38:33;;;;;;;12.60;8.10;;;3.20;99.90;;;;;;5038098;28;20556;-60
2020/12/20 02:40:59;;;;;;;14.97;8.13;;;3.20;99.90;;;;;;5047956;28;20177;-60
2020/12/20 02:43:25;;;;;;;13.00;8.30;;;3.20;99.90;;;;;;5030863;28;20202;-59
2020/12/20 02:45:51;;;;;;;13.87;8.77;;;3.20;99.90;;;;;;5050501;28;20175;-60
2020/12/20 02:48:16;;;;;;;15.43;8.20;;;3.20;99.90;;;;;;5031386;28;20461;-59
2020/12/20 02:50:43;;;;;;;16.80;9.40;;;3.20;99.90;;;;;;5029970;28;20190;-60
2020/12/20 02:53:08;;;;;;;17.80;7.97;;;3.20;99.90;;;;;;5048203;28;20218;-60
2020/12/20 02:55:34;;;;;;;12.40;7.77;;;3.20;99.90;;;;;;5031712;28;20424;-60
2020/12/20 02:58:00;;;;;;;16.83;8.20;;;3.20;99.90;;;;;;5050603;28;20600;-59
2020/12/20 03:00:25;;;;;;;16.20;8.20;;;3.20;99.90;;;;;;5046202;28;20675;-60
2020/12/20 03:02:51;;;;;;;15.17;8.60;;;3.20;99.90;;;;;;5048524;28;20207;-60
2020/12/20 03:05:17;;;;;;;11.83;7.83;;;3.20;99.90;;;;;;5042516;28;20530;-60
2020/12/20 03:07:44;;;;;;;14.03;8.43;;;3.10;99.90;;;;;;5048960;28;20965;-60
2020/12/20 03:10:10;;;;;;;15.20;8.47;;;3.10;99.90;;;;;;5025153;28;20417;-61
2020/12/20 03:12:36;;;;;;;17.30;9.80;;;3.10;99.90;;;;;;5045003;28;20440;-59
2020/12/20 03:15:02;;;;;;;14.13;8.80;;;3.10;99.90;;;;;;5038456;28;20174;-61
2020/12/20 03:17:27;;;;;;;18.33;8.70;;;3.10;99.90;;;;;;5042893;28;20174;-60
2020/12/20 03:19:53;;;;;;;14.57;8.53;;;3.10;99.90;;;;;;5023961;28;20422;-60
2020/12/20 03:22:19;;;;;;;14.57;8.83;;;3.10;99.90;;;;;;5020149;28;20215;-60
2020/12/20 03:24:45;;;;;;;17.17;9.37;;;3.10;99.90;;;;;;5048489;28;20460;-60
2020/12/20 03:27:10;;;;;;;15.83;8.53;;;3.10;99.90;;;;;;5048470;28;20485;-60
2020/12/20 03:29:36;;;;;;;12.97;8.47;;;3.20;99.90;;;;;;5043732;28;20253;-60
2020/12/20 03:32:02;;;;;;;13.50;8.67;;;3.10;99.90;;;;;;5049002;28;20262;-60
2020/12/20 03:34:27;;;;;;;17.93;9.13;;;3.20;99.90;;;;;;5049075;28;20566;-60
2020/12/20 03:36:53;;;;;;;15.53;8.27;;;3.20;99.90;;;;;;5026515;28;20183;-60
2020/12/20 03:39:19;;;;;;;12.23;8.70;;;3.10;99.90;;;;;;5029329;28;20191;-60
2020/12/20 03:41:44;;;;;;;15.87;8.37;;;3.10;99.90;;;;;;5023496;28;20191;-60
2020/12/20 03:44:11;;;;;;;16.67;9.23;;;3.10;99.90;;;;;;5049404;28;20648;-60
2020/12/20 03:46:37;;;;;;;14.67;9.13;;;3.20;99.90;;;;;;5052783;28;20653;-60
2020/12/20 03:49:03;;;;;;;19.10;9.03;;;3.10;99.90;;;;;;5052092;28;20425;-60
2020/12/20 03:51:29;;;;;;;18.53;8.87;;;3.20;99.90;;;;;;5053023;28;20667;-60
2020/12/20 03:53:55;;;;;;;11.73;8.30;;;3.20;99.90;;;;;;5009064;28;600630;-60
2020/12/20 03:56:20;;;;;;;13.00;8.80;;;3.20;99.90;;;;;;5047027;28;20455;-60
2020/12/20 03:58:46;;;;;;;14.60;9.37;;;3.20;99.90;;;;;;5054050;28;20189;-60
2020/12/20 04:01:12;;;;;;;14.30;9.43;;;3.10;99.90;;;;;;5034254;28;20491;-60
2020/12/20 04:03:38;;;;;;;13.73;8.80;;;3.10;99.90;;;;;;5016995;28;20591;-60
2020/12/20 04:06:03;;;;;;;16.07;8.23;;;3.20;99.90;;;;;;5019427;28;20194;-60
2020/12/20 04:08:29;;;;;;;18.33;9.30;;;3.10;99.90;;;;;;5051920;28;20225;-60
2020/12/20 04:10:55;;;;;;;16.73;8.93;;;3.10;99.90;;;;;;5037373;28;20194;-61
2020/12/20 04:13:20;;;;;;;14.70;8.50;;;3.10;99.90;;;;;;5056793;28;20199;-60
2020/12/20 04:15:46;;;;;;;15.00;8.43;;;3.10;99.90;;;;;;5057943;28;20167;-60
2020/12/20 04:18:12;;;;;;;12.73;8.50;;;3.10;99.90;;;;;;5057788;28;20239;-60
2020/12/20 04:20:37;;;;;;;16.53;7.90;;;3.10;99.90;;;;;;5035576;28;20189;-61
2020/12/20 04:23:03;;;;;;;13.67;8.00;;;3.10;99.90;;;;;;5028378;28;20215;-60
2020/12/20 04:25:29;;;;;;;13.20;8.30;;;3.10;99.90;;;;;;5053726;28;20186;-60
2020/12/20 04:27:54;;;;;;;14.00;8.57;;;3.10;99.90;;;;;;5017207;28;20646;-60
2020/12/20 04:30:20;;;;;;;14.83;8.60;;;3.10;99.90;;;;;;5053127;28;20186;-60
2020/12/20 04:32:46;;;;;;;16.00;8.50;;;3.00;99.90;;;;;;5048771;28;20708;-60
2020/12/20 04:35:11;;;;;;;13.67;8.00;;;3.00;99.90;;;;;;5054637;28;20183;-60
2020/12/20 04:37:37;;;;;;;16.30;7.83;;;3.10;99.90;;;;;;5074294;28;20182;-60
2020/12/20 04:40:06;;;;;;;13.10;8.13;;;3.00;99.90;;;;;;5059571;28;20194;-60
2020/12/20 04:42:32;;;;;;;14.73;8.10;;;3.10;99.90;;;;;;5046489;28;20726;-60
2020/12/20 04:44:58;;;;;;;10.03;7.10;;;3.00;99.90;;;;;;5053599;28;20438;-60
2020/12/20 04:47:24;;;;;;;14.97;7.90;;;3.00;99.90;;;;;;5029541;28;20520;-60
2020/12/20 04:49:52;;;;;;;9.63;6.90;;;3.00;99.90;;;;;;5025547;28;20188;-60
2020/12/20 04:52:22;;;;;;;15.17;8.83;;;3.00;99.90;;;;;;5050131;28;20470;-61
2020/12/20 04:54:48;;;;;;;12.80;8.20;;;3.00;99.90;;;;;;5080383;22;20496;-61
2020/12/20 04:57:17;;;;;;;11.83;7.87;;;3.00;99.90;;;;;;5072137;28;20506;-63
2020/12/20 04:59:43;;;;;;;15.60;8.93;;;3.00;99.90;;;;;;5062718;28;20423;-65
2020/12/20 05:02:11;;;;;;;13.57;8.73;;;3.00;99.90;;;;;;5062625;28;20437;-62
2020/12/20 05:04:37;;;;;;;14.57;7.47;;;3.00;99.90;;;;;;5032664;28;20437;-62
2020/12/20 05:07:04;;;;;;;14.03;8.20;;;3.00;99.90;;;;;;5033917;28;20454;-67
2020/12/20 05:09:31;;;;;;;14.00;8.57;;;2.90;99.90;;;;;;5045203;28;20433;-61
2020/12/20 05:11:56;;;;;;;16.37;8.67;;;2.90;99.90;;;;;;5044476;28;20460;-64
2020/12/20 05:14:33;;;;;;;19.87;8.60;;;2.90;99.90;;;;;;5043772;28;20446;-65
2020/12/20 05:16:59;;;;;;;18.50;8.23;;;2.90;99.90;;;;;;5045636;28;20432;-66
2020/12/20 05:19:31;;;;;;;14.20;7.80;;;2.90;99.90;;;;;;5030065;28;20430;-61
2020/12/20 05:22:16;;;;;;;13.63;8.80;;;2.90;99.90;;;;;;5030886;28;20270;-61
2020/12/20 05:24:44;;;;;;;11.20;8.00;;;2.90;99.90;;;;;;5039720;28;20455;-60
2020/12/20 05:27:39;;;;;;;12.43;8.30;;;2.90;99.90;;;;;;5037458;28;20471;-61
2020/12/20 05:30:17;;;;;;;12.50;7.90;;;2.90;99.90;;;;;;5028094;28;20444;-63
2020/12/20 05:32:45;;;;;;;13.00;8.33;;;2.90;99.90;;;;;;5048449;28;20447;-61
2020/12/20 05:35:15;;;;;;;14.70;8.30;;;2.90;99.90;;;;;;5052453;28;20445;-65
2020/12/20 05:37:42;;;;;;;12.13;8.03;;;2.90;99.90;;;;;;5037743;28;20513;-63
2020/12/20 05:40:15;;;;;;;16.50;9.30;;;2.90;99.90;;;;;;5026701;28;20570;-61
2020/12/20 05:42:53;;;;;;;14.77;8.70;;;3.00;99.90;;;;;;5031434;28;20430;-61
2020/12/20 05:45:22;;;;;;;12.37;8.10;;;2.90;99.90;;;;;;5052106;28;20527;-61
2020/12/20 05:47:47;;;;;;;14.37;9.33;;;2.90;99.90;;;;;;5028418;28;20542;-62
2020/12/20 05:50:13;;;;;;;13.40;9.53;;;2.90;99.90;;;;;;5032513;28;20536;-64
2020/12/20 05:52:39;;;;;;;13.63;8.13;;;3.00;99.90;;;;;;5045448;28;20203;-64
2020/12/20 05:55:12;;;;;;;15.70;9.27;;;3.00;99.90;;;;;;5051495;28;20496;-65
2020/12/20 05:57:38;;;;;;;12.43;7.90;;;3.00;99.90;;;;;;5043742;28;20532;-62
2020/12/20 06:00:05;;;;;;;13.20;8.47;;;3.00;99.90;;;;;;5035364;28;20481;-62
2020/12/20 06:02:31;;;;;;;12.77;8.23;;;3.00;99.90;;;;;;5049604;28;20190;-62
2020/12/20 06:05:00;;;;;;;12.83;7.77;;;3.00;99.90;;;;;;5050341;28;20445;-62
2020/12/20 06:07:26;;;;;;;12.33;7.70;;;3.00;99.90;;;;;;5047344;28;20464;-65
2020/12/20 06:10:00;;;;;;;11.23;7.70;;;3.00;99.90;;;;;;5051730;28;20823;-62
2020/12/20 06:12:28;;;;;;;15.97;7.90;;;3.00;99.90;;;;;;5041689;28;20501;-62
2020/12/20 06:14:55;;;;;;;12.77;7.90;;;3.00;99.90;;;;;;5030585;28;20444;-61
2020/12/20 06:17:26;;;;;;;13.90;8.30;;;3.00;99.90;;;;;;5045772;28;20441;-61
2020/12/20 06:19:54;;;;;;;13.93;8.43;;;3.00;99.90;;;;;;5045512;28;20429;-61
2020/12/20 06:22:30;;;;;;;14.67;8.30;;;2.90;99.90;;;;;;5050192;28;20433;-61
2020/12/20 06:24:59;;;;;;;13.50;8.43;;;2.90;99.90;;;;;;5048531;28;20472;-61
2020/12/20 06:27:26;;;;;;;13.40;9.30;;;2.90;99.90;;;;;;5019718;28;20446;-62
2020/12/20 06:29:57;;;;;;;13.87;7.63;;;2.90;99.90;;;;;;5042338;28;20426;-63
2020/12/20 06:32:29;;;;;;;13.90;9.17;;;2.90;99.90;;;;;;5034456;28;20428;-61
2020/12/20 06:34:58;;;;;;;10.77;7.37;;;2.80;99.90;;;;;;5044469;28;20439;-61
2020/12/20 06:37:24;;;;;;;13.67;8.03;;;2.80;99.90;;;;;;5045996;28;20435;-61
2020/12/20 06:39:50;;;;;;;13.07;8.10;;;2.80;99.90;;;;;;5045537;28;20536;-66
2020/12/20 06:42:35;;;;;;;14.13;8.50;;;2.80;99.90;;;;;;5043405;28;20457;-62
2020/12/20 06:45:20;;;;;;;13.20;7.97;;;2.80;99.90;;;;;;5037196;28;20571;-61
2020/12/20 06:48:00;;;;;;;12.57;8.20;;;2.80;99.90;;;;;;5045977;28;20548;-64
2020/12/20 06:50:43;;;;;;;11.47;7.63;;;2.80;99.90;;;;;;5044330;28;20434;-62
2020/12/20 06:53:11;;;;;;;14.37;9.00;;;2.80;99.90;;;;;;5040398;28;20457;-63
2020/12/20 06:55:37;;;;;;;15.40;9.00;;;2.70;99.90;;;;;;5048652;28;20442;-61
2020/12/20 06:58:03;;;;;;;24.63;9.50;;;2.70;99.90;;;;;;5046451;28;20972;-61
2020/12/20 07:00:39;;;;;;;13.70;7.97;;;2.80;99.90;;;;;;5049940;28;20179;-65
2020/12/20 07:03:05;;;;;;;12.93;7.50;;;2.70;99.90;;;;;;5049475;28;20272;-60
2020/12/20 07:05:34;;;;;;;16.17;8.27;;;2.70;99.90;;;;;;5046189;28;20962;-59
2020/12/20 07:08:12;;;;;;;13.43;8.10;;;2.70;99.90;;;;;;5044691;28;20493;-59
2020/12/20 07:10:46;;;;;;;12.83;8.63;;;2.70;99.90;;;;;;5049353;28;20408;-60
2020/12/20 07:13:14;;;;;;;14.60;8.30;;;2.70;99.90;;;;;;5033749;28;20445;-60
2020/12/20 07:15:47;;;;;;;11.50;7.40;;;2.70;99.90;;;;;;5040453;28;20416;-60
2020/12/20 07:18:39;;;;;;;14.40;7.17;;;2.60;99.90;;;;;;5050248;28;20443;-62
2020/12/20 07:21:06;;;;;;;16.70;6.90;;;2.60;99.90;;;;;;5049547;28;20419;-59
2020/12/20 07:23:32;;;;;;;13.00;7.57;;;2.60;99.90;;;;;;5044539;28;20886;-60
2020/12/20 07:25:57;;;;;;;12.23;7.83;;;2.60;99.90;;;;;;5050893;28;20504;-60
2020/12/20 07:28:23;;;;;;;13.27;7.70;;;2.60;99.90;;;;;;5031624;28;20218;-63
2020/12/20 07:30:49;;;;;;;16.00;7.50;;;2.70;99.90;;;;;;5044547;28;20188;-58
2020/12/20 07:33:18;;;;;;;12.17;7.43;;;2.60;99.90;;;;;;5047335;28;20686;-59
2020/12/20 07:35:47;;;;;;;13.27;8.77;;;2.60;99.90;;;;;;5050647;28;20182;-58
2020/12/20 07:38:14;;;;;;;12.37;7.30;;;2.70;99.90;;;;;;5050366;28;20787;-60
2020/12/20 07:40:40;;;;;;;12.83;7.60;;;2.70;99.90;;;;;;5041799;28;20437;-60
2020/12/20 07:43:06;;;;;;;12.97;7.50;;;2.60;99.90;;;;;;5048784;28;20428;-60
2020/12/20 07:45:33;;;;;;;12.27;7.20;;;2.70;99.90;;;;;;5050240;28;20520;-60
2020/12/20 07:47:58;;;;;;;13.17;8.03;;;2.70;99.90;;;;;;5023676;28;20221;-60
2020/12/20 07:50:25;;;;;;;12.13;7.33;;;2.70;99.90;;;;;;5048410;28;20406;-65
2020/12/20 07:52:51;;;;;;;10.60;6.80;;;2.70;99.90;;;;;;5049470;28;20229;-61
2020/12/20 07:55:17;;;;;;;11.53;6.43;;;2.70;99.90;;;;;;5048037;28;20512;-61
2020/12/20 07:57:47;;;;;;;14.33;8.07;;;2.70;99.90;;;;;;5051061;28;20437;-60
2020/12/20 08:00:14;;;;;;;22.27;9.07;;;2.70;99.90;;;;;;5063569;28;20441;-61
2020/12/20 08:02:40;;;;;;;14.30;8.53;;;2.70;99.90;;;;;;5047651;28;20438;-61
2020/12/20 08:05:10;;;;;;;15.57;8.87;;;2.70;99.90;;;;;;5052429;28;20463;-63
2020/12/20 08:07:37;;;;;;;15.27;8.47;;;2.70;99.90;;;;;;5062052;28;20457;-67
2020/12/20 08:10:05;;;;;;;15.87;9.50;;;2.70;99.90;;;;;;5061224;28;20472;-65
2020/12/20 08:12:35;;;;;;;19.57;9.43;;;2.70;99.90;;;;;;5046915;28;20543;-63
2020/12/20 08:15:08;;;;;;;13.07;9.07;;;2.70;99.90;;;;;;5060294;28;20484;-63
2020/12/20 08:17:35;;;;;;;18.47;9.23;;;2.70;99.90;;;;;;5048300;28;20441;-64
2020/12/20 08:20:05;;;;;;;16.63;9.60;;;2.70;99.90;;;;;;5061232;28;20437;-66
2020/12/20 08:22:34;;;;;;;15.50;9.40;;;2.70;99.90;;;;;;5066511;28;20449;-65
2020/12/20 08:25:08;;;;;;;17.00;10.30;;;2.70;99.90;;;;;;5063369;28;20467;-63
2020/12/20 08:27:36;;;;;;;19.83;11.00;;;2.80;99.90;;;;;;5064153;28;20462;-62
2020/12/20 08:30:05;;;;;;;18.00;10.10;;;2.80;99.90;;;;;;5070165;28;20440;-63
2020/12/20 08:32:42;;;;;;;25.10;12.10;;;2.80;99.90;;;;;;5046663;28;21065;-63
2020/12/20 08:35:14;;;;;;;18.87;10.37;;;2.80;99.90;;;;;;5047209;28;20453;-64
2020/12/20 08:37:40;;;;;;;17.10;9.90;;;2.80;99.90;;;;;;5064286;28;20520;-67
2020/12/20 08:40:15;;;;;;;21.57;11.00;;;2.80;99.90;;;;;;5057073;28;20509;-69
2020/12/20 08:42:42;;;;;;;20.40;10.33;;;2.90;99.90;;;;;;5056522;28;20465;-64
2020/12/20 08:45:16;;;;;;;18.70;10.23;;;2.90;99.90;;;;;;5057017;28;20520;-63
2020/12/20 08:47:43;;;;;;;17.20;10.13;;;3.00;99.90;;;;;;5059214;28;20459;-60
2020/12/20 08:50:10;;;;;;;19.20;10.73;;;2.90;99.90;;;;;;5064929;28;20469;-64
2020/12/20 08:52:37;;;;;;;16.40;9.23;;;3.00;99.90;;;;;;5068015;28;20445;-64
2020/12/20 08:55:04;;;;;;;13.67;8.60;;;3.00;99.90;;;;;;5058296;28;20465;-62
2020/12/20 08:57:32;;;;;;;17.50;9.60;;;3.10;99.90;;;;;;5050118;28;20453;-60
2020/12/20 09:00:14;;;;;;;15.77;9.83;;;3.10;99.90;;;;;;5051825;28;20978;-60
2020/12/20 09:02:41;;;;;;;22.83;12.13;;;3.10;99.90;;;;;;5029813;28;20849;-59
2020/12/20 09:05:11;;;;;;;19.10;12.20;;;3.20;99.90;;;;;;5040537;28;20469;-60
2020/12/20 09:07:44;;;;;;;23.83;11.87;;;3.30;99.90;;;;;;5053594;28;20441;-61
2020/12/20 09:10:39;;;;;;;21.40;12.73;;;3.30;99.90;;;;;;5035363;28;20472;-63
2020/12/20 09:13:06;;;;;;;18.70;11.10;;;3.40;99.90;;;;;;5029698;28;20456;-61
2020/12/20 09:15:34;;;;;;;18.10;11.07;;;3.50;99.90;;;;;;5044185;28;20457;-64
2020/12/20 09:18:24;;;;;;;17.23;10.30;;;3.60;99.90;;;;;;5038787;28;20417;-62
2020/12/20 09:20:49;;;;;;;13.70;9.30;;;3.60;99.90;;;;;;5033288;28;20494;-63
2020/12/20 09:23:23;;;;;;;15.40;9.77;;;3.60;99.90;;;;;;5045101;28;20449;-61
2020/12/20 09:26:03;;;;;;;19.40;10.30;;;3.60;99.90;;;;;;5051792;28;20669;-61
2020/12/20 09:28:32;;;;;;;20.40;10.90;;;3.60;99.90;;;;;;5048714;28;20453;-66
2020/12/20 09:30:59;;;;;;;20.40;9.87;;;3.60;99.90;;;;;;5043094;28;20427;-62
2020/12/20 09:33:33;;;;;;;17.70;11.33;;;3.70;99.90;;;;;;5046117;28;20839;-62
2020/12/20 09:36:19;;;;;;;17.07;10.63;;;3.70;99.90;;;;;;5050782;28;20495;-62
2020/12/20 09:38:45;;;;;;;16.17;11.13;;;3.70;99.90;;;;;;5052024;28;20424;-62
2020/12/20 09:41:13;;;;;;;15.90;10.07;;;3.80;99.90;;;;;;5041073;28;20479;-63
2020/12/20 09:43:40;;;;;;;14.33;9.30;;;3.80;99.90;;;;;;5031579;28;20484;-62
2020/12/20 09:46:07;;;;;;;20.13;8.80;;;3.90;99.90;;;;;;5049897;28;20526;-62
2020/12/20 09:48:33;;;;;;;15.13;10.17;;;4.00;99.90;;;;;;5049663;28;20489;-62
2020/12/20 09:50:58;;;;;;;17.23;9.93;;;4.10;99.90;;;;;;5033847;28;20858;-63
2020/12/20 09:53:24;;;;;;;14.30;9.60;;;4.20;99.90;;;;;;5044429;28;20245;-63
2020/12/20 09:55:50;;;;;;;14.77;8.47;;;4.40;99.90;;;;;;5041548;28;20441;-62
2020/12/20 09:58:17;;;;;;;12.77;8.33;;;4.50;99.90;;;;;;5045445;28;20205;-61
2020/12/20 10:00:44;;;;;;;15.47;7.50;;;4.60;99.90;;;;;;5048582;28;20475;-60
2020/12/20 10:03:11;;;;;;;10.90;7.67;;;4.80;99.90;;;;;;5037010;28;20883;-60
2020/12/20 10:05:39;;;;;;;19.80;8.00;;;4.90;99.90;;;;;;5041571;28;20480;-64
2020/12/20 10:08:06;;;;;;;11.73;7.30;;;5.00;99.90;;;;;;5045098;28;20500;-65
2020/12/20 10:10:31;;;;;;;13.40;7.67;;;5.10;99.90;;;;;;5042825;28;20457;-59
2020/12/20 10:12:57;;;;;;;12.67;7.90;;;5.20;99.90;;;;;;5038027;28;20891;-61
2020/12/20 10:15:24;;;;;;;12.30;7.70;;;5.30;99.90;;;;;;5039487;28;20594;-60
2020/12/20 10:17:50;;;;;;;11.07;7.30;;;5.40;99.90;;;;;;5038808;28;20432;-62
2020/12/20 10:20:16;;;;;;;8.90;6.10;;;5.50;99.90;;;;;;5040198;28;20449;-62
2020/12/20 10:22:42;;;;;;;8.37;6.73;;;5.60;99.90;;;;;;5041378;28;20444;-62
2020/12/20 10:25:07;;;;;;;9.70;7.23;;;5.60;99.90;;;;;;5038261;28;20465;-59
2020/12/20 10:27:33;;;;;;;9.57;7.33;;;5.60;99.90;;;;;;5042927;28;20213;-62
2020/12/20 10:29:59;;;;;;;10.13;7.10;;;5.60;99.90;;;;;;5022959;28;20195;-66
2020/12/20 10:32:25;;;;;;;8.53;6.20;;;5.60;99.90;;;;;;5040117;28;20191;-66
2020/12/20 10:34:51;;;;;;;17.40;5.97;;;5.60;99.90;;;;;;5039951;28;20223;-62
2020/12/20 10:37:16;;;;;;;9.90;6.90;;;5.60;99.90;;;;;;5039870;28;20383;-64
2020/12/20 10:39:42;;;;;;;8.73;6.73;;;5.70;99.90;;;;;;5024210;28;20196;-61
2020/12/20 10:42:14;;;;;;;13.47;8.40;;;6.00;99.90;;;;;;5039874;28;20222;-61
2020/12/20 10:44:40;;;;;;;25.50;9.53;;;6.30;99.90;;;;;;5032696;28;20456;-64
2020/12/20 10:47:06;;;;;;;13.60;8.83;;;6.70;99.90;;;;;;5042434;28;20457;-66
2020/12/20 10:49:32;;;;;;;15.37;9.10;;;6.90;99.90;;;;;;5025538;28;20438;-62
2020/12/20 10:51:57;;;;;;;10.97;6.90;;;7.10;99.60;;;;;;5036643;28;20414;-63
2020/12/20 10:54:29;;;;;;;10.30;5.97;;;7.20;98.90;;;;;;5037533;28;20958;-62
2020/12/20 10:56:58;;;;;;;7.77;5.53;;;7.20;98.80;;;;;;5040335;28;20188;-65
2020/12/20 10:59:27;;;;;;;8.73;5.87;;;7.30;98.20;;;;;;5027400;28;20965;-62
2020/12/20 11:01:54;;;;;;;9.43;5.67;;;7.40;97.50;;;;;;5040246;28;20433;-61
2020/12/20 11:04:20;;;;;;;8.23;5.90;;;7.50;97.10;;;;;;5022112;28;20454;-61
2020/12/20 11:06:46;;;;;;;8.60;6.20;;;7.60;97.20;;;;;;5040768;28;20433;-71
2020/12/20 11:09:11;;;;;;;9.60;5.70;;;7.70;97.10;;;;;;5038416;22;20492;-55
2020/12/20 11:11:37;;;;;;;10.03;5.67;;;7.70;96.80;;;;;;5044605;28;20183;-56
2020/12/20 11:14:03;;;;;;;8.50;5.60;;;7.80;96.90;;;;;;5022897;28;20560;-54
2020/12/20 11:16:28;;;;;;;10.10;6.40;;;7.90;96.60;;;;;;5045541;28;20233;-55
2020/12/20 11:18:54;;;;;;;9.10;6.20;;;8.10;96.10;;;;;;5041276;28;20195;-56
2020/12/20 11:21:20;;;;;;;10.93;6.40;;;8.40;95.90;;;;;;5042848;28;20632;-55
2020/12/20 11:23:47;;;;;;;10.30;6.87;;;8.60;96.00;;;;;;5039573;28;20745;-54
2020/12/20 11:26:21;;;;;;;12.60;8.80;;;8.90;95.00;;;;;;5042673;28;20433;-55
2020/12/20 11:28:49;;;;;;;14.97;9.43;;;9.10;94.60;;;;;;5038919;28;20477;-54
2020/12/20 11:31:16;;;;;;;16.07;10.00;;;9.30;93.90;;;;;;5038280;28;20464;-54
2020/12/20 11:33:43;;;;;;;12.73;9.20;;;9.50;93.50;;;;;;5041177;28;20444;-55
2020/12/20 11:36:09;;;;;;;13.60;8.97;;;9.60;92.60;;;;;;5037365;28;20453;-58
2020/12/20 11:38:35;;;;;;;15.03;8.80;;;9.60;92.20;;;;;;5037549;28;20963;-59
2020/12/20 11:41:04;;;;;;;14.03;8.63;;;9.70;91.60;;;;;;5038574;28;20877;-58
2020/12/20 11:43:31;;;;;;;12.53;8.30;;;9.70;91.80;;;;;;5041336;28;20421;-56
2020/12/20 11:45:57;;;;;;;13.83;8.20;;;9.70;90.40;;;;;;5045140;28;21088;-58
2020/12/20 11:48:23;;;;;;;13.03;7.87;;;9.60;90.40;;;;;;5041997;28;20453;-55
2020/12/20 11:50:49;;;;;;;14.83;8.60;;;9.50;90.20;;;;;;5033331;28;20425;-60
2020/12/20 11:53:14;;;;;;;11.17;7.37;;;9.40;90.20;;;;;;5035019;28;20465;-58
2020/12/20 11:55:41;;;;;;;16.70;9.27;;;9.30;89.80;;;;;;5039975;28;20645;-54
2020/12/20 11:58:11;;;;;;;13.00;8.00;;;9.20;90.10;;;;;;5035773;28;20199;-59
2020/12/20 12:00:41;;;;;;;12.87;7.20;;;9.20;90.30;;;;;;5045480;28;20887;-57
2020/12/20 12:03:08;;;;;;;9.70;6.63;;;9.20;87.80;;;;;;5043437;28;20525;-57
2020/12/20 12:05:37;;;;;;;11.33;6.00;;;9.20;86.20;;;;;;5039178;28;20556;-59
2020/12/20 12:08:05;;;;;;;7.57;6.23;;;9.10;86.10;;;;;;5039147;28;20457;-57
2020/12/20 12:10:32;;;;;;;10.93;6.93;;;9.10;87.10;;;;;;5039793;28;20511;-58
2020/12/20 12:12:57;;;;;;;11.13;6.30;;;9.20;86.40;;;;;;5044822;28;20449;-57
2020/12/20 12:15:23;;;;;;;16.20;6.53;;;9.20;86.10;;;;;;5042424;28;20587;-58
2020/12/20 12:17:49;;;;;;;7.80;5.83;;;9.30;87.00;;;;;;5046072;28;20187;-55
2020/12/20 12:20:16;;;;;;;7.60;5.10;;;9.30;87.20;;;;;;5049092;28;20206;-57
2020/12/20 12:22:42;;;;;;;8.17;5.73;;;9.30;86.10;;;;;;5042942;28;20783;-56
2020/12/20 12:25:08;;;;;;;8.60;5.87;;;9.20;85.70;;;;;;5043511;28;20540;-54
2020/12/20 12:27:34;;;;;;;8.40;5.60;;;9.20;86.30;;;;;;5045905;28;20183;-55
2020/12/20 12:30:00;;;;;;;8.50;5.63;;;9.20;86.60;;;;;;5045278;28;20314;-58
2020/12/20 12:32:26;;;;;;;9.37;5.40;;;9.20;85.90;;;;;;5048017;28;20437;-55
2020/12/20 12:34:52;;;;;;;11.63;6.50;;;9.20;85.30;;;;;;5049960;28;21499;-57
2020/12/20 12:37:17;;;;;;;10.97;6.33;;;9.30;85.70;;;;;;5044744;28;20201;-59
2020/12/20 12:39:43;;;;;;;9.90;6.27;;;9.30;84.70;;;;;;5050562;28;20892;-55
2020/12/20 12:42:09;;;;;;;9.03;6.37;;;9.30;85.80;;;;;;5046995;28;20209;-57
2020/12/20 12:44:34;;;;;;;10.03;6.17;;;9.40;86.70;;;;;;5035773;28;20180;-58
2020/12/20 12:47:00;;;;;;;11.73;6.13;;;9.40;86.40;;;;;;5045972;28;20215;-56
2020/12/20 12:49:26;;;;;;;9.00;6.30;;;9.50;85.00;;;;;;5039422;28;20207;-56
2020/12/20 12:51:52;;;;;;;9.20;6.10;;;9.60;87.00;;;;;;5044808;28;20251;-59